LEPP Airport Information

Runway Information
Runway 15 Length 7241 ft width 148 ft
Elevation 1468 ft Threshold ft Heading 152
Runway 33 Length 7241 ft Width 148 ft
Elevation 1504 ft Threshold 984 ft Heading 332
Runway 03 Length 2 ft width 0 ft
Elevation 1468 ft Threshold ft Heading 0
Runway 21 Length 2 ft Width 0 ft
Elevation 1500 ft Threshold ft Heading 0
Airport Frequencies
Type APP Name APP Frequency 118.2 MHZ
Type GND Name GND Frequency 121.7 MHZ
Type TWR Name TWR Frequency 118.2 MHZ
Airport Navaids
Type NDB Name Pamplona Frequency 422 KHZ
Type VOR-DME Name Pamplona Frequency 113550 KHZ
Type VOR-DME Name Pamplona Frequency 112300 KHZ
Airport Weather Information & NOTAM
ADDS - METARS form results

(0647 UTC 14 August 2022)
Data provider http://aviationweather.gov/metar/data/
 
METAR text: LEPP 140630Z VRB01KT 9999 FEW018 20/17 Q1012
Conditions at: LEPP (PAMPLONA/NOAIN , ES) observed 0630 UTC 14 August 2022
Temperature: 20.0°C (68°F)
Dewpoint: 17.0°C (63°F) [RH = 83%]
Pressure (altimeter): 29.88 inches Hg (1012.0 mb)
Winds: variable direction winds at 1 MPH (1 knots; 0.5 m/s)
Visibility: 6 or more miles (10+ km)
Ceiling: at least 12,000 feet AGL
Clouds: few clouds at 1800 feet AGL
Weather: no significant weather observed at this time

METAR text: LEPP 140600Z VRB02KT CAVOK 19/17 Q1012
Conditions at: LEPP (PAMPLONA/NOAIN , ES) observed 0600 UTC 14 August 2022
Temperature: 19.0°C (66°F)
Dewpoint: 17.0°C (63°F) [RH = 88%]
Pressure (altimeter): 29.88 inches Hg (1012.0 mb)
Winds: variable direction winds at 2 MPH (2 knots; 1.0 m/s)
Visibility: 6 or more miles (10+ km)
Ceiling: ceiling and visibility are OK
Clouds: unknown
Weather: no significant weather observed at this time

Forecast for: LEPP (PAMPLONA/NOAIN , ES)
Text: TAF LEPP 140200Z 1403/1503 34009KT CAVOK TX26/1415Z TN17/1405Z
Forecast period: 0300 UTC 14 August 2022 to 0300 UTC 15 August 2022
Forecast type: FROM: standard forecast or significant change
Winds: from the NNW (340 degrees) at 10 MPH (9 knots; 4.6 m/s)
Visibility: 6 or more miles (10+ km)
Ceiling: unknown
Clouds: missing
Weather: no significant weather forecast for this period
Text: PROB40
Forecast period: 1100 to 2000 UTC 14 August 2022
Forecast type: TEMPORARY: The following changes expected for less than half the time period
Winds: from the N (350 degrees) at 17 MPH (15 knots; 7.7 m/s)
gusting to 29 MPH (25 knots; 12.9 m/s)
Visibility: missing
Ceiling: unknown
Clouds: missing
Weather: no significant weather forecast for this period